sensor_id;sensor_type;location;lat;lon;timestamp;pressure;altitude;pressure_sealevel;temperature;humidity
28267;BME280;15525;45.568;5.448;2022-12-07T00:01:32;98223.69;;;6.33;66.14
28267;BME280;15525;45.568;5.448;2022-12-07T00:04:00;98180.34;;;6.16;65.90
28267;BME280;15525;45.568;5.448;2022-12-07T00:06:34;98221.25;;;6.43;66.03
28267;BME280;15525;45.568;5.448;2022-12-07T00:09:01;98171.00;;;6.13;65.74
28267;BME280;15525;45.568;5.448;2022-12-07T00:11:26;98194.22;;;6.34;65.69
28267;BME280;15525;45.568;5.448;2022-12-07T00:13:57;98221.06;;;6.49;65.63
28267;BME280;15525;45.568;5.448;2022-12-07T00:16:25;98217.84;;;6.47;65.84
28267;BME280;15525;45.568;5.448;2022-12-07T00:18:51;98193.28;;;6.12;65.70
28267;BME280;15525;45.568;5.448;2022-12-07T00:21:19;98192.06;;;6.31;65.55
28267;BME280;15525;45.568;5.448;2022-12-07T00:23:46;98156.28;;;5.83;66.05
28267;BME280;15525;45.568;5.448;2022-12-07T00:26:12;98203.38;;;6.27;66.34
28267;BME280;15525;45.568;5.448;2022-12-07T00:28:38;98145.75;;;5.99;65.94
28267;BME280;15525;45.568;5.448;2022-12-07T00:31:06;98198.69;;;6.45;65.74
28267;BME280;15525;45.568;5.448;2022-12-07T00:33:33;98165.63;;;6.25;65.33
28267;BME280;15525;45.568;5.448;2022-12-07T00:35:59;98151.19;;;6.21;65.29
28267;BME280;15525;45.568;5.448;2022-12-07T00:38:28;98195.22;;;6.45;65.14
28267;BME280;15525;45.568;5.448;2022-12-07T00:40:57;98194.56;;;6.10;65.70
28267;BME280;15525;45.568;5.448;2022-12-07T00:43:23;98184.41;;;6.07;66.18
28267;BME280;15525;45.568;5.448;2022-12-07T00:45:48;98178.63;;;6.10;65.85
28267;BME280;15525;45.568;5.448;2022-12-07T00:48:14;98194.28;;;6.23;66.33
28267;BME280;15525;45.568;5.448;2022-12-07T00:50:39;98190.56;;;6.24;65.89
28267;BME280;15525;45.568;5.448;2022-12-07T00:53:04;98173.38;;;6.15;65.62
28267;BME280;15525;45.568;5.448;2022-12-07T00:55:34;98209.63;;;6.32;65.34
28267;BME280;15525;45.568;5.448;2022-12-07T00:57:59;98144.88;;;5.82;66.17
28267;BME280;15525;45.568;5.448;2022-12-07T01:00:25;98178.16;;;6.13;65.57
28267;BME280;15525;45.568;5.448;2022-12-07T01:02:50;98157.34;;;6.10;65.87
28267;BME280;15525;45.568;5.448;2022-12-07T01:05:16;98160.09;;;6.15;66.02
28267;BME280;15525;45.568;5.448;2022-12-07T01:07:41;98159.44;;;6.36;65.85
28267;BME280;15525;45.568;5.448;2022-12-07T01:10:07;98162.66;;;6.10;65.78
28267;BME280;15525;45.568;5.448;2022-12-07T01:12:32;98177.03;;;6.25;65.88
28267;BME280;15525;45.568;5.448;2022-12-07T01:14:57;98164.41;;;6.16;65.78
28267;BME280;15525;45.568;5.448;2022-12-07T01:17:23;98181.91;;;6.28;65.98
28267;BME280;15525;45.568;5.448;2022-12-07T01:19:48;98153.28;;;6.19;65.68
28267;BME280;15525;45.568;5.448;2022-12-07T01:22:14;98182.41;;;6.42;65.82
28267;BME280;15525;45.568;5.448;2022-12-07T01:24:39;98188.22;;;6.39;65.38
28267;BME280;15525;45.568;5.448;2022-12-07T01:27:04;98180.28;;;6.27;65.80
28267;BME280;15525;45.568;5.448;2022-12-07T01:29:30;98176.06;;;6.43;65.61
28267;BME280;15525;45.568;5.448;2022-12-07T01:31:55;98180.31;;;6.44;65.08
28267;BME280;15525;45.568;5.448;2022-12-07T01:34:21;98155.78;;;6.25;65.55
28267;BME280;15525;45.568;5.448;2022-12-07T01:36:46;98172.41;;;6.32;65.57
28267;BME280;15525;45.568;5.448;2022-12-07T01:39:11;98185.19;;;6.35;65.60
28267;BME280;15525;45.568;5.448;2022-12-07T01:41:39;98193.03;;;6.42;65.75
28267;BME280;15525;45.568;5.448;2022-12-07T01:44:19;98204.50;;;6.59;65.13
28267;BME280;15525;45.568;5.448;2022-12-07T01:46:47;98205.88;;;6.61;65.47
28267;BME280;15525;45.568;5.448;2022-12-07T01:51:49;98209.91;;;6.64;65.35
28267;BME280;15525;45.568;5.448;2022-12-07T01:54:17;98194.22;;;6.34;65.24
28267;BME280;15525;45.568;5.448;2022-12-07T01:56:49;98159.63;;;6.18;65.45
28267;BME280;15525;45.568;5.448;2022-12-07T01:59:17;98214.69;;;6.62;65.29
28267;BME280;15525;45.568;5.448;2022-12-07T02:01:43;98150.06;;;6.17;65.44
28267;BME280;15525;45.568;5.448;2022-12-07T02:04:10;98164.34;;;6.27;65.49
28267;BME280;15525;45.568;5.448;2022-12-07T02:06:37;98167.19;;;6.09;65.72
28267;BME280;15525;45.568;5.448;2022-12-07T02:09:04;98180.25;;;6.11;65.83
28267;BME280;15525;45.568;5.448;2022-12-07T02:11:30;98206.31;;;6.42;65.68
28267;BME280;15525;45.568;5.448;2022-12-07T02:13:55;98173.94;;;6.28;65.73
28267;BME280;15525;45.568;5.448;2022-12-07T02:16:55;98210.03;;;6.41;65.43
28267;BME280;15525;45.568;5.448;2022-12-07T02:27:32;98195.38;;;6.38;65.41
28267;BME280;15525;45.568;5.448;2022-12-07T02:32:48;98202.72;;;6.48;65.37
28267;BME280;15525;45.568;5.448;2022-12-07T02:35:37;98197.59;;;6.58;64.97
28267;BME280;15525;45.568;5.448;2022-12-07T02:40:55;98214.69;;;6.62;65.28
28267;BME280;15525;45.568;5.448;2022-12-07T02:43:28;98200.06;;;6.48;65.49
28267;BME280;15525;45.568;5.448;2022-12-07T02:46:02;98168.69;;;6.33;65.27
28267;BME280;15525;45.568;5.448;2022-12-07T02:48:31;98154.50;;;6.28;65.05
28267;BME280;15525;45.568;5.448;2022-12-07T02:50:58;98170.84;;;6.20;65.08
28267;BME280;15525;45.568;5.448;2022-12-07T02:53:38;98186.78;;;6.48;65.34
28267;BME280;15525;45.568;5.448;2022-12-07T03:06:45;98162.91;;;6.36;64.99
28267;BME280;15525;45.568;5.448;2022-12-07T03:09:27;98141.00;;;6.01;65.57
28267;BME280;15525;45.568;5.448;2022-12-07T03:12:18;98175.84;;;6.33;65.41
28267;BME280;15525;45.568;5.448;2022-12-07T03:14:57;98148.09;;;6.12;65.62
28267;BME280;15525;45.568;5.448;2022-12-07T03:17:28;98165.47;;;6.31;65.60
28267;BME280;15525;45.568;5.448;2022-12-07T03:20:00;98113.72;;;6.06;65.67
28267;BME280;15525;45.568;5.448;2022-12-07T03:22:29;98142.72;;;6.24;65.13
28267;BME280;15525;45.568;5.448;2022-12-07T03:25:01;98140.16;;;6.29;64.91
28267;BME280;15525;45.568;5.448;2022-12-07T03:27:34;98140.50;;;6.32;65.03
28267;BME280;15525;45.568;5.448;2022-12-07T03:30:05;98163.16;;;6.35;65.06
28267;BME280;15525;45.568;5.448;2022-12-07T03:32:43;98172.25;;;6.39;64.71
28267;BME280;15525;45.568;5.448;2022-12-07T03:35:43;98163.84;;;6.30;64.96
28267;BME280;15525;45.568;5.448;2022-12-07T03:38:18;98134.97;;;6.06;64.80
28267;BME280;15525;45.568;5.448;2022-12-07T03:40:58;98170.59;;;6.21;65.29
28267;BME280;15525;45.568;5.448;2022-12-07T03:43:28;98161.91;;;6.26;65.17
28267;BME280;15525;45.568;5.448;2022-12-07T03:51:30;98126.50;;;6.37;64.61
28267;BME280;15525;45.568;5.448;2022-12-07T03:56:31;98160.84;;;6.71;64.51
28267;BME280;15525;45.568;5.448;2022-12-07T03:58:58;98124.22;;;6.29;63.81
28267;BME280;15525;45.568;5.448;2022-12-07T04:01:23;98127.94;;;6.28;64.25
28267;BME280;15525;45.568;5.448;2022-12-07T04:03:49;98103.69;;;6.24;64.84
28267;BME280;15525;45.568;5.448;2022-12-07T04:06:14;98130.38;;;6.46;64.31
28267;BME280;15525;45.568;5.448;2022-12-07T04:08:40;98108.47;;;6.39;64.44
28267;BME280;15525;45.568;5.448;2022-12-07T04:11:05;98126.34;;;6.60;64.10
28267;BME280;15525;45.568;5.448;2022-12-07T04:13:31;98136.34;;;6.69;64.25
28267;BME280;15525;45.568;5.448;2022-12-07T04:16:16;98074.06;;;6.32;64.33
28267;BME280;15525;45.568;5.448;2022-12-07T04:18:41;98110.53;;;6.53;64.10
28267;BME280;15525;45.568;5.448;2022-12-07T04:21:07;98118.72;;;6.63;64.34
28267;BME280;15525;45.568;5.448;2022-12-07T04:23:32;98081.06;;;6.38;63.63
28267;BME280;15525;45.568;5.448;2022-12-07T04:25:58;98109.75;;;6.53;64.35
28267;BME280;15525;45.568;5.448;2022-12-07T04:28:23;98137.47;;;6.73;64.22
28267;BME280;15525;45.568;5.448;2022-12-07T04:30:48;98079.31;;;6.44;63.98
28267;BME280;15525;45.568;5.448;2022-12-07T04:33:14;98101.28;;;6.56;64.08
28267;BME280;15525;45.568;5.448;2022-12-07T04:35:39;98098.69;;;6.61;64.24
28267;BME280;15525;45.568;5.448;2022-12-07T04:38:07;98136.19;;;6.76;64.20
28267;BME280;15525;45.568;5.448;2022-12-07T04:40:32;98088.41;;;6.48;63.93
28267;BME280;15525;45.568;5.448;2022-12-07T04:42:58;98094.13;;;6.56;63.80
28267;BME280;15525;45.568;5.448;2022-12-07T04:45:23;98091.78;;;6.60;64.19
28267;BME280;15525;45.568;5.448;2022-12-07T04:47:48;98093.38;;;6.61;63.90
28267;BME280;15525;45.568;5.448;2022-12-07T04:50:14;98110.22;;;6.66;64.13
28267;BME280;15525;45.568;5.448;2022-12-07T04:52:39;98112.66;;;6.68;63.74
28267;BME280;15525;45.568;5.448;2022-12-07T04:55:05;98103.53;;;6.64;63.81
28267;BME280;15525;45.568;5.448;2022-12-07T04:57:30;98103.16;;;6.55;63.53
28267;BME280;15525;45.568;5.448;2022-12-07T04:59:55;98088.41;;;6.48;63.98
28267;BME280;15525;45.568;5.448;2022-12-07T05:02:21;98083.66;;;6.50;63.76
28267;BME280;15525;45.568;5.448;2022-12-07T05:04:46;98104.03;;;6.61;64.41
28267;BME280;15525;45.568;5.448;2022-12-07T05:07:12;98080.44;;;6.48;63.84
28267;BME280;15525;45.568;5.448;2022-12-07T05:09:37;98060.94;;;6.42;64.14
28267;BME280;15525;45.568;5.448;2022-12-07T05:12:03;98127.63;;;6.74;63.76
28267;BME280;15525;45.568;5.448;2022-12-07T05:14:28;98061.09;;;6.19;63.79
28267;BME280;15525;45.568;5.448;2022-12-07T05:16:53;98120.88;;;6.66;64.18
28267;BME280;15525;45.568;5.448;2022-12-07T05:19:19;98121.53;;;6.73;64.28
28267;BME280;15525;45.568;5.448;2022-12-07T05:21:45;98134.97;;;6.83;64.28
28267;BME280;15525;45.568;5.448;2022-12-07T05:24:12;98094.59;;;6.70;63.94
28267;BME280;15525;45.568;5.448;2022-12-07T05:26:38;98108.78;;;6.75;63.71
28267;BME280;15525;45.568;5.448;2022-12-07T05:29:04;98115.88;;;6.53;63.80
28267;BME280;15525;45.568;5.448;2022-12-07T05:31:30;98073.97;;;6.11;64.52
28267;BME280;15525;45.568;5.448;2022-12-07T05:33:55;98104.19;;;6.38;64.44
28267;BME280;15525;45.568;5.448;2022-12-07T05:36:21;98095.56;;;6.14;64.78
28267;BME280;15525;45.568;5.448;2022-12-07T05:38:47;98071.69;;;6.03;64.71
28267;BME280;15525;45.568;5.448;2022-12-07T05:41:15;98116.44;;;6.22;65.34
28267;BME280;15525;45.568;5.448;2022-12-07T05:44:00;98101.31;;;5.95;65.62
28267;BME280;15525;45.568;5.448;2022-12-07T05:46:25;98081.00;;;5.89;65.77
28267;BME280;15525;45.568;5.448;2022-12-07T05:48:51;98073.31;;;6.04;65.20
28267;BME280;15525;45.568;5.448;2022-12-07T05:51:16;98069.44;;;6.11;65.01
28267;BME280;15525;45.568;5.448;2022-12-07T05:53:42;98064.41;;;5.82;65.60
28267;BME280;15525;45.568;5.448;2022-12-07T05:56:07;98076.38;;;6.12;65.17
28267;BME280;15525;45.568;5.448;2022-12-07T05:58:33;98072.38;;;5.82;65.77
28267;BME280;15525;45.568;5.448;2022-12-07T06:01:17;98066.75;;;5.67;66.73
28267;BME280;15525;45.568;5.448;2022-12-07T06:03:42;98023.28;;;5.56;66.75
28267;BME280;15525;45.568;5.448;2022-12-07T06:06:07;98100.72;;;6.21;66.26
28267;BME280;15525;45.568;5.448;2022-12-07T06:08:33;98043.72;;;5.56;66.73
28267;BME280;15525;45.568;5.448;2022-12-07T06:10:58;98080.31;;;5.54;67.43
28267;BME280;15525;45.568;5.448;2022-12-07T06:13:42;98072.25;;;5.49;67.38
28267;BME280;15525;45.568;5.448;2022-12-07T06:16:07;98085.97;;;5.85;67.02
28267;BME280;15525;45.568;5.448;2022-12-07T06:18:33;98041.50;;;5.64;66.78
28267;BME280;15525;45.568;5.448;2022-12-07T06:20:58;98079.06;;;5.45;68.04
28267;BME280;15525;45.568;5.448;2022-12-07T06:23:24;98062.09;;;5.06;68.55
28267;BME280;15525;45.568;5.448;2022-12-07T06:25:49;98035.84;;;4.70;69.51
28267;BME280;15525;45.568;5.448;2022-12-07T06:28:14;98078.25;;;5.56;68.20
28267;BME280;15525;45.568;5.448;2022-12-07T06:30:40;98083.72;;;5.66;67.86
28267;BME280;15525;45.568;5.448;2022-12-07T06:33:06;98082.78;;;5.72;68.36
28267;BME280;15525;45.568;5.448;2022-12-07T06:35:32;98073.53;;;5.74;67.62
28267;BME280;15525;45.568;5.448;2022-12-07T06:37:58;98061.28;;;5.85;67.06
28267;BME280;15525;45.568;5.448;2022-12-07T06:40:23;98085.44;;;5.72;68.26
28267;BME280;15525;45.568;5.448;2022-12-07T06:42:49;98061.97;;;5.52;67.81
28267;BME280;15525;45.568;5.448;2022-12-07T06:45:14;98060.41;;;5.96;67.78
28267;BME280;15525;45.568;5.448;2022-12-07T06:47:39;98042.41;;;5.98;66.62
28267;BME280;15525;45.568;5.448;2022-12-07T06:50:05;98053.03;;;5.98;66.97
28267;BME280;15525;45.568;5.448;2022-12-07T06:52:33;98055.94;;;6.13;66.72
28267;BME280;15525;45.568;5.448;2022-12-07T06:54:58;98021.59;;;5.50;67.68
28267;BME280;15525;45.568;5.448;2022-12-07T06:57:24;98079.75;;;5.80;68.22
28267;BME280;15525;45.568;5.448;2022-12-07T06:59:50;98071.03;;;5.68;67.85
28267;BME280;15525;45.568;5.448;2022-12-07T07:02:16;98028.16;;;5.76;67.25
28267;BME280;15525;45.568;5.448;2022-12-07T07:04:41;98086.47;;;6.27;66.74
28267;BME280;15525;45.568;5.448;2022-12-07T07:07:07;98087.91;;;6.51;66.66
28267;BME280;15525;45.568;5.448;2022-12-07T07:09:32;98055.22;;;6.50;66.46
28267;BME280;15525;45.568;5.448;2022-12-07T07:11:58;98065.28;;;6.32;66.37
28267;BME280;15525;45.568;5.448;2022-12-07T07:14:23;98055.94;;;6.13;66.26
28267;BME280;15525;45.568;5.448;2022-12-07T07:16:48;98063.00;;;6.24;66.24
28267;BME280;15525;45.568;5.448;2022-12-07T07:19:14;98046.06;;;5.97;66.40
28267;BME280;15525;45.568;5.448;2022-12-07T07:21:39;98055.63;;;6.26;66.11
28267;BME280;15525;45.568;5.448;2022-12-07T07:24:05;98027.38;;;6.36;65.81
28267;BME280;15525;45.568;5.448;2022-12-07T07:26:30;98039.28;;;6.50;65.47
28267;BME280;15525;45.568;5.448;2022-12-07T07:28:56;98077.94;;;6.25;66.13
28267;BME280;15525;45.568;5.448;2022-12-07T07:31:21;98078.72;;;6.25;66.43
28267;BME280;15525;45.568;5.448;2022-12-07T07:33:47;98080.91;;;6.28;66.51
28267;BME280;15525;45.568;5.448;2022-12-07T07:36:12;98075.44;;;6.18;66.36
28267;BME280;15525;45.568;5.448;2022-12-07T07:38:38;98085.00;;;6.36;65.80
28267;BME280;15525;45.568;5.448;2022-12-07T07:41:04;98121.28;;;6.75;65.67
28267;BME280;15525;45.568;5.448;2022-12-07T07:43:29;98094.59;;;6.70;65.44
28267;BME280;15525;45.568;5.448;2022-12-07T07:45:55;98054.25;;;6.56;65.50
28267;BME280;15525;45.568;5.448;2022-12-07T07:48:20;98109.47;;;7.04;65.05
28267;BME280;15525;45.568;5.448;2022-12-07T07:50:48;98087.53;;;6.97;64.75
28267;BME280;15525;45.568;5.448;2022-12-07T07:53:13;98098.53;;;7.00;64.75
28267;BME280;15525;45.568;5.448;2022-12-07T07:55:38;98093.31;;;6.89;64.67
28267;BME280;15525;45.568;5.448;2022-12-07T07:58:04;98103.31;;;6.65;64.99
28267;BME280;15525;45.568;5.448;2022-12-07T08:00:29;98095.09;;;6.50;64.86
28267;BME280;15525;45.568;5.448;2022-12-07T08:02:55;98129.75;;;6.72;64.90
28267;BME280;15525;45.568;5.448;2022-12-07T08:05:20;98105.94;;;6.16;66.46
28267;BME280;15525;45.568;5.448;2022-12-07T08:07:46;98101.03;;;5.68;66.64
28267;BME280;15525;45.568;5.448;2022-12-07T08:10:13;98092.94;;;5.75;66.68
28267;BME280;15525;45.568;5.448;2022-12-07T08:12:40;98067.91;;;5.71;66.98
28267;BME280;15525;45.568;5.448;2022-12-07T08:15:30;98103.25;;;5.99;66.81
28267;BME280;15525;45.568;5.448;2022-12-07T08:17:55;98123.53;;;6.50;66.27
28267;BME280;15525;45.568;5.448;2022-12-07T08:20:21;98097.19;;;6.48;65.40
28267;BME280;15525;45.568;5.448;2022-12-07T08:22:47;98135.88;;;6.89;65.05
28267;BME280;15525;45.568;5.448;2022-12-07T08:25:12;98102.91;;;6.73;64.55
28267;BME280;15525;45.568;5.448;2022-12-07T08:27:38;98112.00;;;6.61;64.89
28267;BME280;15525;45.568;5.448;2022-12-07T08:30:03;98090.56;;;6.51;65.14
28267;BME280;15525;45.568;5.448;2022-12-07T08:32:29;98118.94;;;6.62;65.20
28267;BME280;15525;45.568;5.448;2022-12-07T08:34:54;98070.94;;;6.52;64.77
28267;BME280;15525;45.568;5.448;2022-12-07T08:37:20;98097.25;;;6.86;65.12
28267;BME280;15525;45.568;5.448;2022-12-07T08:39:45;98121.78;;;7.10;64.68
28267;BME280;15525;45.568;5.448;2022-12-07T08:42:11;98093.03;;;7.07;64.15
28267;BME280;15525;45.568;5.448;2022-12-07T08:44:36;98140.72;;;7.30;64.64
28267;BME280;15525;45.568;5.448;2022-12-07T08:47:04;98116.94;;;7.23;64.52
28267;BME280;15525;45.568;5.448;2022-12-07T08:49:37;98085.25;;;6.84;64.65
28267;BME280;15525;45.568;5.448;2022-12-07T08:52:05;98136.66;;;6.89;65.10
28267;BME280;15525;45.568;5.448;2022-12-07T08:54:31;98113.28;;;6.91;64.95
28267;BME280;15525;45.568;5.448;2022-12-07T08:56:58;98110.88;;;6.90;64.85
28267;BME280;15525;45.568;5.448;2022-12-07T08:59:24;98123.25;;;7.01;64.85
28267;BME280;15525;45.568;5.448;2022-12-07T09:01:49;98091.84;;;6.81;65.41
28267;BME280;15525;45.568;5.448;2022-12-07T09:04:15;98105.06;;;6.76;65.51
28267;BME280;15525;45.568;5.448;2022-12-07T09:06:41;98120.41;;;6.53;66.39
28267;BME280;15525;45.568;5.448;2022-12-07T09:09:08;98140.81;;;7.02;64.93
28267;BME280;15525;45.568;5.448;2022-12-07T09:11:34;98091.53;;;6.78;64.96
28267;BME280;15525;45.568;5.448;2022-12-07T09:13:59;98084.09;;;6.96;64.58
28267;BME280;15525;45.568;5.448;2022-12-07T09:16:25;98130.63;;;7.32;64.34
28267;BME280;15525;45.568;5.448;2022-12-07T09:18:50;98119.97;;;7.32;64.41
28267;BME280;15525;45.568;5.448;2022-12-07T09:21:16;98112.06;;;7.37;63.99
28267;BME280;15525;45.568;5.448;2022-12-07T09:23:41;98107.59;;;7.42;63.84
28267;BME280;15525;45.568;5.448;2022-12-07T09:26:07;98124.19;;;7.28;63.49
28267;BME280;15525;45.568;5.448;2022-12-07T09:28:33;98127.88;;;7.05;64.34
28267;BME280;15525;45.568;5.448;2022-12-07T09:30:58;98145.06;;;7.36;64.31
28267;BME280;15525;45.568;5.448;2022-12-07T09:33:24;98094.72;;;7.34;63.90
28267;BME280;15525;45.568;5.448;2022-12-07T09:35:51;98109.88;;;7.34;63.66
28267;BME280;15525;45.568;5.448;2022-12-07T09:38:17;98141.97;;;7.65;63.73
28267;BME280;15525;45.568;5.448;2022-12-07T09:40:44;98116.47;;;7.48;63.40
28267;BME280;15525;45.568;5.448;2022-12-07T09:43:23;98129.97;;;7.63;63.32
28267;BME280;15525;45.568;5.448;2022-12-07T09:45:54;98151.81;;;7.86;63.32
28267;BME280;15525;45.568;5.448;2022-12-07T09:48:24;98135.91;;;7.48;63.55
28267;BME280;15525;45.568;5.448;2022-12-07T09:50:52;98126.84;;;7.28;63.10
28267;BME280;15525;45.568;5.448;2022-12-07T09:53:26;98113.25;;;7.46;63.47
28267;BME280;15525;45.568;5.448;2022-12-07T09:55:53;98111.75;;;6.62;64.36
28267;BME280;15525;45.568;5.448;2022-12-07T09:58:24;98103.16;;;6.72;64.99
28267;BME280;15525;45.568;5.448;2022-12-07T10:00:57;98106.50;;;6.67;65.10
28267;BME280;15525;45.568;5.448;2022-12-07T10:03:26;98072.84;;;6.73;64.54
28267;BME280;15525;45.568;5.448;2022-12-07T10:05:53;98112.22;;;7.30;63.99
28267;BME280;15525;45.568;5.448;2022-12-07T10:08:19;98072.25;;;7.25;63.49
28267;BME280;15525;45.568;5.448;2022-12-07T10:10:48;98138.09;;;7.51;63.42
28267;BME280;15525;45.568;5.448;2022-12-07T10:13:19;98140.03;;;7.39;63.98
28267;BME280;15525;45.568;5.448;2022-12-07T10:15:49;98133.81;;;7.50;63.67
28267;BME280;15525;45.568;5.448;2022-12-07T10:18:27;98076.78;;;7.08;63.92
28267;BME280;15525;45.568;5.448;2022-12-07T10:21:16;98107.91;;;7.46;62.94
28267;BME280;15525;45.568;5.448;2022-12-07T10:24:31;98095.66;;;7.45;63.22
28267;BME280;15525;45.568;5.448;2022-12-07T10:26:53;98105.41;;;7.18;64.02
28267;BME280;15525;45.568;5.448;2022-12-07T10:29:20;98122.66;;;7.53;63.35
28267;BME280;15525;45.568;5.448;2022-12-07T10:31:52;98085.44;;;7.58;63.58
28267;BME280;15525;45.568;5.448;2022-12-07T10:34:25;98116.63;;;7.84;63.09
28267;BME280;15525;45.568;5.448;2022-12-07T10:36:52;98082.75;;;7.58;62.86
28267;BME280;15525;45.568;5.448;2022-12-07T10:39:20;98092.31;;;7.76;63.16
28267;BME280;15525;45.568;5.448;2022-12-07T10:41:57;98069.09;;;7.07;63.56
28267;BME280;15525;45.568;5.448;2022-12-07T10:44:29;98111.38;;;7.46;63.93
28267;BME280;15525;45.568;5.448;2022-12-07T10:58:13;98087.94;;;7.91;62.44
28267;BME280;15525;45.568;5.448;2022-12-07T11:14:52;98065.88;;;7.96;62.45
28267;BME280;15525;45.568;5.448;2022-12-07T11:33:53;97996.72;;;7.53;62.40
28267;BME280;15525;45.568;5.448;2022-12-07T11:36:46;98043.47;;;7.97;62.50
28267;BME280;15525;45.568;5.448;2022-12-07T11:39:35;98037.38;;;7.96;61.81
28267;BME280;15525;45.568;5.448;2022-12-07T11:42:27;98045.97;;;7.77;62.06
28267;BME280;15525;45.568;5.448;2022-12-07T11:45:16;98051.56;;;7.80;62.25
28267;BME280;15525;45.568;5.448;2022-12-07T11:48:04;98053.53;;;7.63;63.23
28267;BME280;15525;45.568;5.448;2022-12-07T11:53:15;98045.91;;;7.72;62.74
28267;BME280;15525;45.568;5.448;2022-12-07T12:01:14;98027.00;;;7.73;62.96
28267;BME280;15525;45.568;5.448;2022-12-07T12:03:47;98013.44;;;7.27;62.81
28267;BME280;15525;45.568;5.448;2022-12-07T12:06:13;97998.91;;;7.13;63.44
28267;BME280;15525;45.568;5.448;2022-12-07T12:14:28;98004.03;;;7.41;63.03
28267;BME280;15525;45.568;5.448;2022-12-07T12:19:43;97989.50;;;7.53;62.91
28267;BME280;15525;45.568;5.448;2022-12-07T12:22:24;98016.25;;;7.90;62.20
28267;BME280;15525;45.568;5.448;2022-12-07T12:24:53;97997.25;;;7.55;62.04
28267;BME280;15525;45.568;5.448;2022-12-07T12:27:26;98023.91;;;7.86;62.47
28267;BME280;15525;45.568;5.448;2022-12-07T12:30:02;98005.84;;;7.88;62.38
28267;BME280;15525;45.568;5.448;2022-12-07T12:42:59;98002.84;;;7.80;62.48
28267;BME280;15525;45.568;5.448;2022-12-07T12:45:32;97980.69;;;7.48;62.45
28267;BME280;15525;45.568;5.448;2022-12-07T12:48:09;97994.84;;;7.80;62.23
28267;BME280;15525;45.568;5.448;2022-12-07T12:51:51;98009.38;;;7.94;62.11
28267;BME280;15525;45.568;5.448;2022-12-07T12:54:08;97985.19;;;8.00;61.90
28267;BME280;15525;45.568;5.448;2022-12-07T12:57:00;98007.59;;;7.78;62.08
28267;BME280;15525;45.568;5.448;2022-12-07T13:02:22;97993.22;;;7.26;63.11
28267;BME280;15525;45.568;5.448;2022-12-07T13:15:46;98000.88;;;7.44;62.99
28267;BME280;15525;45.568;5.448;2022-12-07T13:20:56;97995.13;;;7.83;62.71
28267;BME280;15525;45.568;5.448;2022-12-07T13:23:25;97974.81;;;7.77;62.59
28267;BME280;15525;45.568;5.448;2022-12-07T13:25:59;97975.84;;;7.71;62.31
28267;BME280;15525;45.568;5.448;2022-12-07T13:28:42;97952.38;;;7.42;62.87
28267;BME280;15525;45.568;5.448;2022-12-07T13:31:19;97989.56;;;7.10;63.56
28267;BME280;15525;45.568;5.448;2022-12-07T13:33:48;97950.38;;;6.63;65.17
28267;BME280;15525;45.568;5.448;2022-12-07T13:36:25;97935.25;;;7.33;63.56
28267;BME280;15525;45.568;5.448;2022-12-07T13:38:59;97978.13;;;7.58;63.78
28267;BME280;15525;45.568;5.448;2022-12-07T13:41:29;97978.75;;;7.70;63.08
28267;BME280;15525;45.568;5.448;2022-12-07T13:44:13;97949.72;;;7.68;62.76
28267;BME280;15525;45.568;5.448;2022-12-07T13:47:04;97977.22;;;7.79;62.76
28267;BME280;15525;45.568;5.448;2022-12-07T13:49:36;97955.94;;;7.26;63.13
28267;BME280;15525;45.568;5.448;2022-12-07T13:52:29;97970.19;;;7.36;63.53
28267;BME280;15525;45.568;5.448;2022-12-07T13:57:32;97937.78;;;6.75;64.54
28267;BME280;15525;45.568;5.448;2022-12-07T14:00:00;97931.78;;;6.84;64.09
28267;BME280;15525;45.568;5.448;2022-12-07T14:02:33;97976.75;;;7.55;63.31
28267;BME280;15525;45.568;5.448;2022-12-07T14:07:52;97972.16;;;7.24;64.27
28267;BME280;15525;45.568;5.448;2022-12-07T14:13:00;97952.50;;;7.57;62.71
28267;BME280;15525;45.568;5.448;2022-12-07T14:15:31;97931.50;;;7.55;63.12
28267;BME280;15525;45.568;5.448;2022-12-07T14:17:58;97913.50;;;6.93;63.61
28267;BME280;15525;45.568;5.448;2022-12-07T14:20:30;97971.63;;;7.49;63.52
28267;BME280;15525;45.568;5.448;2022-12-07T14:22:56;97943.41;;;7.48;63.62
28267;BME280;15525;45.568;5.448;2022-12-07T14:25:24;97903.13;;;7.44;63.00
28267;BME280;15525;45.568;5.448;2022-12-07T14:27:56;97931.47;;;7.29;63.21
28267;BME280;15525;45.568;5.448;2022-12-07T14:30:25;97934.16;;;7.55;63.13
28267;BME280;15525;45.568;5.448;2022-12-07T14:32:54;97930.22;;;6.67;64.47
28267;BME280;15525;45.568;5.448;2022-12-07T14:35:19;97929.47;;;6.93;64.53
28267;BME280;15525;45.568;5.448;2022-12-07T14:37:47;97968.06;;;7.38;64.36
28267;BME280;15525;45.568;5.448;2022-12-07T14:40:18;97948.50;;;7.28;64.09
28267;BME280;15525;45.568;5.448;2022-12-07T14:42:45;97952.66;;;7.45;63.93
28267;BME280;15525;45.568;5.448;2022-12-07T14:45:20;97947.28;;;7.40;64.12
28267;BME280;15525;45.568;5.448;2022-12-07T14:47:48;97910.88;;;7.19;63.30
28267;BME280;15525;45.568;5.448;2022-12-07T14:50:16;97910.72;;;6.83;63.50
28267;BME280;15525;45.568;5.448;2022-12-07T14:52:45;97921.78;;;7.18;63.63
28267;BME280;15525;45.568;5.448;2022-12-07T14:55:25;97931.94;;;7.47;63.30
28267;BME280;15525;45.568;5.448;2022-12-07T14:57:51;97946.31;;;7.46;63.24
28267;BME280;15525;45.568;5.448;2022-12-07T15:00:18;97934.44;;;7.59;63.19
28267;BME280;15525;45.568;5.448;2022-12-07T15:02:46;97934.59;;;7.79;62.98
28267;BME280;15525;45.568;5.448;2022-12-07T15:05:12;97952.97;;;7.75;62.58
28267;BME280;15525;45.568;5.448;2022-12-07T15:07:38;97884.53;;;7.18;63.21
28267;BME280;15525;45.568;5.448;2022-12-07T15:10:05;97914.00;;;7.38;62.99
28267;BME280;15525;45.568;5.448;2022-12-07T15:12:30;97898.34;;;7.41;62.70
28267;BME280;15525;45.568;5.448;2022-12-07T15:14:56;97893.69;;;7.58;62.55
28267;BME280;15525;45.568;5.448;2022-12-07T15:17:21;97894.50;;;7.59;63.03
28267;BME280;15525;45.568;5.448;2022-12-07T15:19:47;97936.09;;;7.65;62.81
28267;BME280;15525;45.568;5.448;2022-12-07T15:22:12;97912.53;;;7.25;63.01
28267;BME280;15525;45.568;5.448;2022-12-07T15:24:37;97907.84;;;7.32;63.83
28267;BME280;15525;45.568;5.448;2022-12-07T15:27:03;97902.66;;;7.47;63.42
28267;BME280;15525;45.568;5.448;2022-12-07T15:29:29;97860.88;;;7.21;63.09